createdAt,value
2018-06-02T00:01:35.468Z,17.80
2018-06-02T00:04:04.490Z,17.80
2018-06-02T00:06:32.732Z,17.70
2018-06-02T00:09:01.770Z,17.60
2018-06-02T00:11:30.791Z,17.60
2018-06-02T00:13:59.044Z,17.60
2018-06-02T00:16:27.307Z,17.60
2018-06-02T00:18:55.541Z,17.50
2018-06-02T00:21:23.808Z,17.60
2018-06-02T00:23:52.113Z,17.60
2018-06-02T00:26:20.335Z,17.60
2018-06-02T00:28:48.611Z,17.50
2018-06-02T00:31:16.851Z,17.50
2018-06-02T00:33:45.110Z,17.50
2018-06-02T00:36:14.148Z,17.40
2018-06-02T00:38:42.414Z,17.40
2018-06-02T00:41:10.671Z,17.40
2018-06-02T00:43:39.127Z,17.40
2018-06-02T00:46:07.363Z,17.30
2018-06-02T00:48:35.599Z,17.30
2018-06-02T00:51:03.871Z,17.20
2018-06-02T00:53:32.131Z,17.20
2018-06-02T00:56:01.184Z,17.20
2018-06-02T00:58:29.447Z,17.20
2018-06-02T01:00:57.751Z,17.20
2018-06-02T01:03:25.994Z,17.20
2018-06-02T01:05:54.275Z,17.10
2018-06-02T01:08:22.515Z,17.10
2018-06-02T01:10:51.547Z,17.10
2018-06-02T01:13:19.824Z,17.00
2018-06-02T01:15:48.051Z,17.10
2018-06-02T01:18:17.095Z,17.00
2018-06-02T01:20:45.340Z,17.00
2018-06-02T01:23:14.376Z,16.70
2018-06-02T01:25:42.612Z,16.60
2018-06-02T01:28:11.643Z,16.40
2018-06-02T01:30:39.879Z,16.40
2018-06-02T01:33:08.915Z,16.60
2018-06-02T01:35:37.151Z,16.60
2018-06-02T01:38:06.154Z,16.70
2018-06-02T01:40:34.414Z,16.60
2018-06-02T01:43:03.448Z,16.60
2018-06-02T01:45:31.727Z,16.60
2018-06-02T01:48:00.016Z,16.60
2018-06-02T01:50:28.258Z,16.50
2018-06-02T01:52:56.547Z,16.50
2018-06-02T01:55:24.788Z,16.50
2018-06-02T01:57:53.827Z,16.40
2018-06-02T02:00:22.059Z,16.40
2018-06-02T02:02:51.059Z,16.30
2018-06-02T02:05:19.335Z,16.30
2018-06-02T02:07:48.343Z,16.30
2018-06-02T02:10:16.619Z,16.30
2018-06-02T02:12:45.589Z,16.30
2018-06-02T02:15:13.855Z,16.20
2018-06-02T02:17:42.123Z,16.30
2018-06-02T02:20:10.428Z,16.10
2018-06-02T02:22:39.459Z,16.20
2018-06-02T02:25:07.735Z,16.10
2018-06-02T02:27:35.963Z,16.30
2018-06-02T02:30:05.013Z,16.20
2018-06-02T02:32:33.260Z,16.20
2018-06-02T02:35:01.495Z,16.20
2018-06-02T02:37:29.788Z,16.30
2018-06-02T02:39:58.836Z,16.30
2018-06-02T02:42:27.084Z,16.30
2018-06-02T02:44:55.361Z,16.30
2018-06-02T02:47:23.604Z,16.30
2018-06-02T02:49:51.864Z,16.30
2018-06-02T02:52:20.104Z,16.20
2018-06-02T02:54:48.360Z,16.20
2018-06-02T02:57:16.697Z,16.20
2018-06-02T02:59:44.972Z,16.30
2018-06-02T03:02:13.208Z,16.00
2018-06-02T03:04:41.508Z,16.10
2018-06-02T03:07:09.751Z,16.10
2018-06-02T03:09:37.993Z,16.10
2018-06-02T03:12:07.124Z,16.00
2018-06-02T03:14:35.392Z,16.00
2018-06-02T03:17:03.688Z,16.00
2018-06-02T03:19:31.951Z,16.00
2018-06-02T03:24:31.895Z,16.10
2018-06-02T03:27:00.155Z,16.10
2018-06-02T03:29:29.191Z,16.20
2018-06-02T03:31:57.458Z,16.20
2018-06-02T03:34:25.712Z,16.20
2018-06-02T03:36:53.964Z,16.30
2018-06-02T03:39:22.963Z,16.30
2018-06-02T03:41:51.996Z,16.30
2018-06-02T03:44:20.236Z,16.30
2018-06-02T03:46:49.233Z,16.30
2018-06-02T03:49:18.259Z,16.30
2018-06-02T03:51:46.655Z,16.30
2018-06-02T03:54:14.888Z,16.40
2018-06-02T03:56:43.883Z,16.30
2018-06-02T03:59:12.115Z,16.30
2018-06-02T04:01:40.366Z,16.10
2018-06-02T04:06:37.348Z,16.30
2018-06-02T04:09:05.576Z,16.30
2018-06-02T04:11:33.836Z,16.30
2018-06-02T04:14:02.833Z,16.50
2018-06-02T04:16:31.827Z,16.50
2018-06-02T04:19:00.824Z,16.50
2018-06-02T04:21:29.863Z,16.50
2018-06-02T04:23:58.119Z,16.50
2018-06-02T04:26:26.403Z,16.50
2018-06-02T04:28:54.640Z,16.70
2018-06-02T04:31:23.663Z,16.60
2018-06-02T04:33:51.918Z,16.60
2018-06-02T04:36:20.940Z,16.80
2018-06-02T04:38:49.207Z,16.80
2018-06-02T04:41:17.452Z,16.90
2018-06-02T04:43:46.479Z,16.90
2018-06-02T04:46:14.727Z,16.90
2018-06-02T04:48:43.772Z,17.20
2018-06-02T04:51:12.008Z,17.20
2018-06-02T04:53:40.275Z,17.30
2018-06-02T04:56:09.292Z,17.30
2018-06-02T04:58:37.567Z,17.30
2018-06-02T05:01:05.832Z,17.30
2018-06-02T05:03:34.069Z,17.50
2018-06-02T05:06:02.335Z,17.50
2018-06-02T05:08:30.568Z,17.70
2018-06-02T05:10:58.808Z,17.70
2018-06-02T05:13:27.230Z,17.80
2018-06-02T05:15:55.468Z,17.80
2018-06-02T05:18:24.472Z,17.70
2018-06-02T05:20:53.537Z,17.60
2018-06-02T05:23:21.767Z,17.60
2018-06-02T05:25:50.019Z,17.70
2018-06-02T05:28:19.068Z,18.20
2018-06-02T05:30:47.364Z,18.20
2018-06-02T05:33:15.656Z,18.10
2018-06-02T05:35:43.927Z,18.10
2018-06-02T05:38:12.191Z,18.20
2018-06-02T05:40:40.453Z,18.30
2018-06-02T05:43:08.683Z,18.50
2018-06-02T05:45:36.940Z,18.60
2018-06-02T05:48:05.172Z,18.70
2018-06-02T05:50:33.431Z,18.60
2018-06-02T05:53:01.684Z,18.70
2018-06-02T05:58:04.460Z,18.80
2018-06-02T06:00:32.691Z,18.90
2018-06-02T06:03:00.964Z,19.00
2018-06-02T06:05:29.226Z,19.00
2018-06-02T06:07:57.507Z,18.80
2018-06-02T06:10:25.781Z,18.80
2018-06-02T06:12:54.013Z,18.90
2018-06-02T06:15:22.295Z,18.80
2018-06-02T06:17:50.523Z,18.80
2018-06-02T06:20:18.832Z,18.90
2018-06-02T06:22:47.071Z,19.00
2018-06-02T06:25:15.303Z,19.40
2018-06-02T06:27:44.373Z,19.60
2018-06-02T06:30:12.596Z,19.60
2018-06-02T06:32:40.829Z,20.10
2018-06-02T06:35:09.128Z,21.00
2018-06-02T06:37:38.168Z,21.90
2018-06-02T06:40:06.439Z,21.90
2018-06-02T06:42:34.680Z,22.20
2018-06-02T06:45:03.723Z,22.80
2018-06-02T06:47:31.955Z,22.80
2018-06-02T06:50:00.208Z,22.70
2018-06-02T06:52:28.575Z,22.20
2018-06-02T06:54:56.848Z,22.60
2018-06-02T06:57:25.868Z,23.70
2018-06-02T06:59:54.099Z,23.70
2018-06-02T07:02:22.396Z,24.70
2018-06-02T07:04:50.635Z,24.40
2018-06-02T07:07:18.889Z,23.30
2018-06-02T07:09:48.697Z,22.20
2018-06-02T07:12:17.768Z,21.60
2018-06-02T07:14:46.067Z,21.50
2018-06-02T07:17:15.073Z,21.80
2018-06-02T07:19:43.336Z,21.80
2018-06-02T07:22:12.335Z,22.10
2018-06-02T07:24:41.395Z,21.70
2018-06-02T07:27:09.641Z,21.70
2018-06-02T07:29:37.952Z,22.30
2018-06-02T07:32:06.260Z,24.00
2018-06-02T07:34:35.255Z,23.40
2018-06-02T07:37:03.547Z,23.40
2018-06-02T07:39:31.801Z,22.90
2018-06-02T07:42:00.852Z,22.50
2018-06-02T07:44:29.088Z,22.50
2018-06-02T07:46:57.334Z,22.60
2018-06-02T07:49:25.664Z,22.00
2018-06-02T07:51:53.911Z,22.40
2018-06-02T07:54:22.174Z,22.80
2018-06-02T07:56:50.448Z,23.60
2018-06-02T07:59:18.695Z,23.80
2018-06-02T08:01:46.978Z,22.90
2018-06-02T08:04:15.252Z,23.80
2018-06-02T08:06:43.488Z,24.60
2018-06-02T08:09:11.715Z,24.70
2018-06-02T08:11:39.980Z,25.10
2018-06-02T08:14:08.236Z,24.70
2018-06-02T08:16:36.487Z,25.10
2018-06-02T08:19:04.772Z,26.50
2018-06-02T08:21:33.028Z,27.50
2018-06-02T08:24:01.287Z,27.50
2018-06-02T08:26:29.527Z,28.60
2018-06-02T08:28:57.788Z,28.40
2018-06-02T08:31:26.103Z,26.30
2018-06-02T08:33:54.358Z,24.80
2018-06-02T08:36:22.617Z,23.60
2018-06-02T08:38:50.882Z,22.80
2018-06-02T08:41:19.139Z,23.20
2018-06-02T08:43:47.416Z,24.30
2018-06-02T08:46:15.699Z,25.50
2018-06-02T08:48:43.931Z,27.20
2018-06-02T08:51:12.213Z,28.10
2018-06-02T08:53:40.759Z,27.20
2018-06-02T08:56:09.771Z,25.30
2018-06-02T08:58:38.123Z,25.30
2018-06-02T09:01:06.405Z,24.50
2018-06-02T09:03:34.687Z,23.50
2018-06-02T09:06:02.963Z,23.20
2018-06-02T09:08:31.200Z,23.40
2018-06-02T09:10:59.491Z,24.00
2018-06-02T09:13:28.023Z,24.10
2018-06-02T09:15:56.401Z,24.70
2018-06-02T09:18:24.664Z,23.90
2018-06-02T09:20:53.001Z,23.50
2018-06-02T09:23:22.042Z,23.20
2018-06-02T09:25:50.356Z,23.10
2018-06-02T09:28:19.368Z,23.20
2018-06-02T09:30:47.612Z,23.10
2018-06-02T09:33:15.880Z,23.40
2018-06-02T09:35:44.296Z,23.70
2018-06-02T09:38:12.592Z,23.50
2018-06-02T09:40:41.552Z,23.50
2018-06-02T09:43:10.576Z,23.60
2018-06-02T09:45:38.852Z,23.60
2018-06-02T09:48:07.091Z,24.00
2018-06-02T09:50:36.091Z,23.80
2018-06-02T09:53:05.135Z,23.80
2018-06-02T09:55:33.445Z,23.80
2018-06-02T09:58:01.695Z,24.10
2018-06-02T10:00:30.763Z,24.30
2018-06-02T10:02:58.995Z,23.60
2018-06-02T10:05:27.258Z,23.60
2018-06-02T10:07:55.523Z,23.60
2018-06-02T10:10:23.841Z,23.50
2018-06-02T10:12:52.923Z,23.40
2018-06-02T10:15:21.163Z,23.40
2018-06-02T10:17:49.426Z,23.30
2018-06-02T10:20:17.700Z,23.50
2018-06-02T10:22:45.952Z,23.70
2018-06-02T10:25:14.291Z,24.10
2018-06-02T10:27:42.543Z,24.20
2018-06-02T10:30:10.824Z,24.50
2018-06-02T10:32:39.060Z,24.40
2018-06-02T10:35:07.299Z,23.70
2018-06-02T10:37:35.564Z,23.70
2018-06-02T10:40:03.824Z,23.40
2018-06-02T10:42:32.113Z,23.30
2018-06-02T10:45:00.367Z,23.30
2018-06-02T10:47:28.683Z,23.50
2018-06-02T10:49:56.915Z,23.60
2018-06-02T10:52:25.215Z,23.30
2018-06-02T10:54:53.447Z,23.50
2018-06-02T10:57:21.743Z,23.70
2018-06-02T10:59:50.040Z,24.00
2018-06-02T11:02:18.273Z,24.10
2018-06-02T11:04:46.508Z,23.80
2018-06-02T11:07:14.816Z,23.70
2018-06-02T11:09:43.905Z,23.50
2018-06-02T11:12:12.899Z,23.20
2018-06-02T11:14:41.899Z,23.20
2018-06-02T11:17:11.006Z,23.20
2018-06-02T11:19:39.218Z,23.20
2018-06-02T11:22:07.591Z,23.50
2018-06-02T11:24:35.919Z,23.70
2018-06-02T11:27:04.940Z,23.70
2018-06-02T11:29:33.240Z,23.70
2018-06-02T11:32:01.535Z,23.70
2018-06-02T11:34:29.773Z,23.50
2018-06-02T11:36:58.008Z,23.60
2018-06-02T11:39:26.243Z,23.70
2018-06-02T11:41:54.507Z,23.80
2018-06-02T11:44:22.765Z,23.90
2018-06-02T11:46:51.759Z,24.30
2018-06-02T11:49:20.024Z,24.30
2018-06-02T11:51:49.020Z,24.10
2018-06-02T11:54:18.023Z,24.20
2018-06-02T11:56:46.327Z,24.20
2018-06-02T11:59:14.563Z,24.20
2018-06-02T12:01:43.571Z,24.40
2018-06-02T12:04:11.971Z,24.40
2018-06-02T12:06:40.207Z,24.70
2018-06-02T12:09:09.216Z,24.50
2018-06-02T12:11:38.387Z,24.90
2018-06-02T12:14:07.398Z,25.10
2018-06-02T12:16:36.408Z,25.20
2018-06-02T12:19:05.449Z,25.40
2018-06-02T12:21:33.680Z,25.40
2018-06-02T12:24:01.952Z,25.60
2018-06-02T12:26:30.179Z,25.70
2018-06-02T12:28:58.504Z,25.50
2018-06-02T12:31:26.736Z,25.00
2018-06-02T12:33:55.020Z,24.70
2018-06-02T12:36:23.301Z,25.00
2018-06-02T12:38:51.543Z,25.30
2018-06-02T12:41:19.760Z,25.30
2018-06-02T12:43:48.788Z,24.30
2018-06-02T12:46:17.048Z,24.30
2018-06-02T12:48:45.279Z,23.90
2018-06-02T12:51:13.519Z,24.10
2018-06-02T12:53:42.539Z,24.30
2018-06-02T12:56:10.807Z,24.30
2018-06-02T12:58:39.120Z,24.50
2018-06-02T13:01:07.427Z,24.90
2018-06-02T13:03:35.627Z,25.30
2018-06-02T13:06:03.863Z,25.30
2018-06-02T13:08:33.003Z,25.30
2018-06-02T13:11:01.239Z,25.30
2018-06-02T13:13:30.285Z,25.10
2018-06-02T13:15:58.531Z,25.10
2018-06-02T13:18:26.824Z,25.10
2018-06-02T13:20:55.072Z,25.90
2018-06-02T13:23:23.372Z,26.40
2018-06-02T13:25:51.745Z,26.50
2018-06-02T13:28:19.959Z,26.80
2018-06-02T13:30:48.207Z,27.20
2018-06-02T13:33:16.465Z,28.10
2018-06-02T13:35:44.956Z,28.20
2018-06-02T13:38:13.195Z,28.30
2018-06-02T13:40:42.264Z,27.20
2018-06-02T13:43:10.530Z,27.20
2018-06-02T13:45:38.850Z,26.20
2018-06-02T13:48:07.085Z,25.60
2018-06-02T13:50:35.364Z,25.50
2018-06-02T13:53:03.606Z,25.50
2018-06-02T13:55:31.956Z,25.10
2018-06-02T13:58:00.263Z,25.10
2018-06-02T14:00:28.757Z,24.90
2018-06-02T14:02:57.129Z,24.30
2018-06-02T14:05:25.383Z,24.60
2018-06-02T14:07:53.696Z,25.80
2018-06-02T14:10:21.942Z,27.10
2018-06-02T14:12:50.339Z,26.70
2018-06-02T14:15:18.571Z,27.90
2018-06-02T14:17:47.593Z,28.60
2018-06-02T14:20:17.065Z,28.60
2018-06-02T14:22:46.073Z,27.20
2018-06-02T14:25:15.090Z,26.30
2018-06-02T14:27:44.075Z,26.20
2018-06-02T14:30:12.475Z,26.30
2018-06-02T14:32:41.467Z,27.50
2018-06-02T14:35:09.995Z,27.40
2018-06-02T14:37:38.252Z,27.50
2018-06-02T14:40:06.571Z,27.90
2018-06-02T14:42:35.813Z,28.70
2018-06-02T14:45:04.173Z,29.10
2018-06-02T14:47:33.260Z,29.20
2018-06-02T14:50:01.603Z,30.20
2018-06-02T14:52:30.665Z,31.30
2018-06-02T14:54:58.901Z,31.20
2018-06-02T14:57:27.954Z,29.80
2018-06-02T14:59:56.224Z,29.70
2018-06-02T15:02:24.571Z,30.50
2018-06-02T15:04:52.900Z,31.40
2018-06-02T15:07:21.143Z,32.40
2018-06-02T15:09:49.467Z,31.20
2018-06-02T15:12:18.463Z,30.80
2018-06-02T15:14:47.512Z,31.40
2018-06-02T15:17:15.808Z,31.40
2018-06-02T15:19:44.047Z,31.10
2018-06-02T15:22:12.284Z,30.40
2018-06-02T15:24:41.382Z,30.80
2018-06-02T15:27:09.730Z,30.80
2018-06-02T15:29:37.943Z,30.00
2018-06-02T15:32:06.216Z,28.20
2018-06-02T15:34:34.563Z,27.10
2018-06-02T15:37:02.812Z,27.40
2018-06-02T15:39:31.134Z,27.60
2018-06-02T15:42:00.136Z,28.20
2018-06-02T15:44:28.451Z,28.10
2018-06-02T15:46:56.688Z,28.50
2018-06-02T15:49:25.755Z,28.90
2018-06-02T15:51:53.995Z,28.80
2018-06-02T15:54:22.269Z,29.70
2018-06-02T15:56:50.657Z,29.90
2018-06-02T15:59:19.018Z,29.90
2018-06-02T16:01:47.272Z,30.40
2018-06-02T16:04:16.312Z,28.10
2018-06-02T16:06:44.551Z,28.00
2018-06-02T16:09:13.640Z,28.70
2018-06-02T16:11:41.901Z,28.70
2018-06-02T16:14:10.148Z,29.70
2018-06-02T16:16:38.392Z,30.50
2018-06-02T16:19:06.844Z,29.50
2018-06-02T16:21:35.065Z,30.00
2018-06-02T16:24:03.331Z,29.50
2018-06-02T16:26:31.583Z,28.80
2018-06-02T16:28:59.816Z,28.40
2018-06-02T16:31:28.088Z,26.90
2018-06-02T16:33:56.495Z,26.60
2018-06-02T16:36:25.519Z,27.40
2018-06-02T16:38:53.814Z,27.40
2018-06-02T16:41:22.111Z,27.40
2018-06-02T16:43:50.392Z,27.30
2018-06-02T16:46:18.652Z,27.50
2018-06-02T16:48:47.072Z,27.70
2018-06-02T16:51:16.071Z,27.40
2018-06-02T16:53:45.151Z,27.20
2018-06-02T16:56:13.427Z,27.20
2018-06-02T16:58:41.696Z,26.90
2018-06-02T17:01:09.927Z,27.10
2018-06-02T17:03:38.339Z,26.70
2018-06-02T17:06:06.604Z,26.60
2018-06-02T17:08:34.842Z,26.50
2018-06-02T17:11:03.131Z,26.10
2018-06-02T17:13:31.367Z,25.60
2018-06-02T17:15:59.620Z,25.50
2018-06-02T17:18:27.918Z,25.40
2018-06-02T17:20:56.780Z,25.30
2018-06-02T17:23:25.163Z,24.90
2018-06-02T17:25:53.456Z,24.60
2018-06-02T17:28:21.765Z,24.40
2018-06-02T17:30:50.832Z,24.30
2018-06-02T17:33:19.072Z,24.20
2018-06-02T17:35:47.308Z,24.50
2018-06-02T17:38:16.311Z,24.40
2018-06-02T17:40:45.512Z,24.00
2018-06-02T17:43:14.560Z,24.00
2018-06-02T17:45:42.804Z,24.00
2018-06-02T17:48:11.136Z,24.00
2018-06-02T17:50:39.373Z,24.00
2018-06-02T17:53:07.615Z,24.10
2018-06-02T17:55:35.880Z,23.70
2018-06-02T17:58:04.887Z,23.50
2018-06-02T18:00:33.119Z,23.50
2018-06-02T18:03:01.388Z,23.50
2018-06-02T18:05:29.707Z,23.50
2018-06-02T18:07:57.971Z,23.20
2018-06-02T18:10:26.980Z,23.30
2018-06-02T18:12:55.316Z,23.30
2018-06-02T18:15:23.631Z,23.30
2018-06-02T18:17:52.656Z,23.20
2018-06-02T18:20:20.887Z,23.20
2018-06-02T18:22:49.956Z,23.00
2018-06-02T18:25:18.232Z,23.00
2018-06-02T18:27:46.508Z,22.90
2018-06-02T18:30:14.944Z,22.80
2018-06-02T18:32:43.204Z,22.80
2018-06-02T18:35:12.214Z,22.60
2018-06-02T18:37:40.623Z,22.60
2018-06-02T18:40:08.889Z,22.60
2018-06-02T18:42:37.143Z,22.60
2018-06-02T18:45:05.404Z,22.50
2018-06-02T18:47:34.464Z,22.50
2018-06-02T18:50:02.700Z,22.50
2018-06-02T18:52:30.927Z,22.60
2018-06-02T18:54:59.243Z,22.40
2018-06-02T18:57:27.477Z,22.30
2018-06-02T18:59:55.732Z,22.30
2018-06-02T19:02:24.026Z,22.30
2018-06-02T19:04:52.383Z,22.20
2018-06-02T19:07:21.454Z,21.90
2018-06-02T19:09:49.651Z,21.90
2018-06-02T19:12:18.186Z,21.80
2018-06-02T19:14:47.164Z,21.80
2018-06-02T19:17:15.500Z,21.80
2018-06-02T19:19:43.787Z,21.80
2018-06-02T19:22:12.461Z,21.70
2018-06-02T19:24:40.972Z,21.70
2018-06-02T19:27:09.204Z,21.70
2018-06-02T19:29:38.086Z,21.60
2018-06-02T19:32:06.472Z,21.50
2018-06-02T19:34:34.701Z,21.50
2018-06-02T19:37:02.966Z,21.40
2018-06-02T19:42:06.503Z,21.10
2018-06-02T19:44:34.732Z,21.10
2018-06-02T19:47:03.026Z,21.20
2018-06-02T19:49:31.256Z,21.10
2018-06-02T19:51:59.483Z,21.00
2018-06-02T19:54:27.806Z,21.00
2018-06-02T19:56:56.809Z,21.00
2018-06-02T19:59:25.056Z,20.90
2018-06-02T20:01:53.327Z,20.90
2018-06-02T20:04:21.636Z,20.90
2018-06-02T20:06:50.673Z,20.90
2018-06-02T20:09:19.013Z,20.90
2018-06-02T20:11:47.415Z,20.80
2018-06-02T20:14:16.419Z,20.60
2018-06-02T20:16:44.703Z,20.60
2018-06-02T20:19:12.964Z,20.50
2018-06-02T20:21:41.192Z,20.20
2018-06-02T20:24:10.389Z,19.90
2018-06-02T20:26:38.619Z,19.90
2018-06-02T20:29:06.856Z,19.90
2018-06-02T20:31:36.084Z,19.80
2018-06-02T20:34:04.352Z,19.80
2018-06-02T20:36:32.572Z,19.70
2018-06-02T20:39:01.608Z,19.60
2018-06-02T20:41:29.968Z,19.50
2018-06-02T20:43:59.004Z,19.60
2018-06-02T20:46:27.284Z,19.50
2018-06-02T20:48:55.539Z,19.60
2018-06-02T20:51:23.931Z,19.60
2018-06-02T20:53:52.285Z,19.70
2018-06-02T20:56:21.291Z,19.70
2018-06-02T20:58:49.568Z,19.70
2018-06-02T21:01:17.804Z,19.60
2018-06-02T21:03:46.084Z,19.60
2018-06-02T21:06:14.344Z,19.60
2018-06-02T21:08:42.671Z,19.60
2018-06-02T21:11:10.951Z,19.60
2018-06-02T21:13:39.203Z,19.60
2018-06-02T21:16:07.447Z,19.60
2018-06-02T21:18:35.679Z,19.50
2018-06-02T21:21:03.920Z,19.50
2018-06-02T21:23:32.239Z,19.40
2018-06-02T21:26:00.471Z,19.30
2018-06-02T21:28:28.723Z,19.30
2018-06-02T21:30:57.024Z,19.20
2018-06-02T21:33:25.278Z,19.20
2018-06-02T21:35:53.660Z,19.00
2018-06-02T21:38:22.032Z,19.00
2018-06-02T21:40:50.255Z,18.80
2018-06-02T21:43:18.540Z,18.70
2018-06-02T21:45:47.539Z,18.60
2018-06-02T21:48:16.580Z,18.60
2018-06-02T21:50:44.859Z,18.60
2018-06-02T21:53:13.144Z,18.60
2018-06-02T21:55:41.383Z,18.50
2018-06-02T21:58:09.623Z,18.30
2018-06-02T22:00:38.767Z,18.30
2018-06-02T22:03:07.021Z,18.30
2018-06-02T22:05:36.464Z,18.40
2018-06-02T22:08:04.732Z,18.40
2018-06-02T22:10:33.018Z,18.30
2018-06-02T22:13:01.525Z,18.20
2018-06-02T22:15:29.796Z,18.10
2018-06-02T22:17:58.787Z,18.10
2018-06-02T22:20:27.035Z,18.20
2018-06-02T22:22:55.376Z,18.10
2018-06-02T22:25:24.384Z,17.80
2018-06-02T22:27:52.656Z,17.80
2018-06-02T22:30:21.809Z,17.50
2018-06-02T22:32:50.028Z,17.50
2018-06-02T22:35:19.035Z,17.50
2018-06-02T22:37:47.320Z,17.50
2018-06-02T22:40:15.608Z,17.40
2018-06-02T22:42:44.592Z,17.50
2018-06-02T22:45:12.832Z,17.50
2018-06-02T22:47:41.914Z,17.50
2018-06-02T22:50:10.209Z,17.50
2018-06-02T22:52:38.383Z,17.40
2018-06-02T22:55:07.456Z,17.40
2018-06-02T22:57:35.724Z,17.30
2018-06-02T23:00:04.085Z,17.40
2018-06-02T23:02:32.607Z,17.40
2018-06-02T23:05:01.709Z,17.50
2018-06-02T23:07:29.993Z,17.40
2018-06-02T23:09:59.104Z,17.60
2018-06-02T23:12:27.428Z,17.60
2018-06-02T23:14:55.672Z,17.50
2018-06-02T23:17:23.991Z,17.50
2018-06-02T23:19:52.278Z,17.50
2018-06-02T23:22:39.382Z,17.50
2018-06-02T23:25:08.351Z,17.30
2018-06-02T23:27:36.689Z,17.30
2018-06-02T23:30:04.978Z,17.30
2018-06-02T23:32:33.215Z,17.30
2018-06-02T23:35:01.460Z,17.10
2018-06-02T23:37:29.736Z,17.00
2018-06-02T23:39:58.039Z,17.00
2018-06-02T23:42:26.287Z,17.00
2018-06-02T23:44:54.532Z,17.00
2018-06-02T23:47:22.815Z,16.90
2018-06-02T23:49:51.127Z,16.80
2018-06-02T23:52:19.375Z,16.80
2018-06-02T23:54:47.671Z,16.70
2018-06-02T23:57:15.955Z,16.60
2018-06-02T23:59:44.204Z,16.60
